sensor_id;sensor_type;location;lat;lon;timestamp;P1;durP1;ratioP1;P2;durP2;ratioP2
12059;SDS011;6091;51.432;6.880;2022-11-15T00:01:10;1.48;;;1.38;;
12059;SDS011;6091;51.432;6.880;2022-11-15T00:03:43;1.80;;;1.70;;
12059;SDS011;6091;51.432;6.880;2022-11-15T00:06:11;1.70;;;1.58;;
12059;SDS011;6091;51.432;6.880;2022-11-15T00:08:38;1.65;;;1.55;;
12059;SDS011;6091;51.432;6.880;2022-11-15T00:11:05;1.60;;;1.50;;
12059;SDS011;6091;51.432;6.880;2022-11-15T00:13:32;1.60;;;1.50;;
12059;SDS011;6091;51.432;6.880;2022-11-15T00:16:00;1.70;;;1.60;;
12059;SDS011;6091;51.432;6.880;2022-11-15T00:18:28;1.58;;;1.48;;
12059;SDS011;6091;51.432;6.880;2022-11-15T00:20:56;1.48;;;1.38;;
12059;SDS011;6091;51.432;6.880;2022-11-15T00:23:32;1.50;;;1.40;;
12059;SDS011;6091;51.432;6.880;2022-11-15T00:26:00;1.88;;;1.60;;
12059;SDS011;6091;51.432;6.880;2022-11-15T00:28:27;1.70;;;1.55;;
12059;SDS011;6091;51.432;6.880;2022-11-15T00:30:59;1.58;;;1.48;;
12059;SDS011;6091;51.432;6.880;2022-11-15T00:33:29;1.75;;;1.65;;
12059;SDS011;6091;51.432;6.880;2022-11-15T00:36:07;1.40;;;1.30;;
12059;SDS011;6091;51.432;6.880;2022-11-15T00:38:37;1.52;;;1.42;;
12059;SDS011;6091;51.432;6.880;2022-11-15T00:41:06;1.77;;;1.67;;
12059;SDS011;6091;51.432;6.880;2022-11-15T00:43:35;1.33;;;1.23;;
12059;SDS011;6091;51.432;6.880;2022-11-15T00:46:03;1.42;;;1.33;;
12059;SDS011;6091;51.432;6.880;2022-11-15T00:48:31;1.50;;;1.40;;
12059;SDS011;6091;51.432;6.880;2022-11-15T00:50:58;1.70;;;1.60;;
12059;SDS011;6091;51.432;6.880;2022-11-15T00:53:25;1.27;;;1.23;;
12059;SDS011;6091;51.432;6.880;2022-11-15T00:55:52;1.70;;;1.60;;
12059;SDS011;6091;51.432;6.880;2022-11-15T00:58:19;1.80;;;1.70;;
12059;SDS011;6091;51.432;6.880;2022-11-15T01:00:46;1.60;;;1.50;;
12059;SDS011;6091;51.432;6.880;2022-11-15T01:03:14;1.63;;;1.52;;
12059;SDS011;6091;51.432;6.880;2022-11-15T01:05:41;1.70;;;1.60;;
12059;SDS011;6091;51.432;6.880;2022-11-15T01:08:14;1.58;;;1.48;;
12059;SDS011;6091;51.432;6.880;2022-11-15T01:10:42;1.45;;;1.35;;
12059;SDS011;6091;51.432;6.880;2022-11-15T01:13:09;1.60;;;1.50;;
12059;SDS011;6091;51.432;6.880;2022-11-15T01:15:38;1.48;;;1.38;;
12059;SDS011;6091;51.432;6.880;2022-11-15T01:18:07;1.20;;;1.20;;
12059;SDS011;6091;51.432;6.880;2022-11-15T01:20:38;1.50;;;1.40;;
12059;SDS011;6091;51.432;6.880;2022-11-15T01:23:08;1.40;;;1.30;;
12059;SDS011;6091;51.432;6.880;2022-11-15T01:25:35;1.15;;;1.10;;
12059;SDS011;6091;51.432;6.880;2022-11-15T01:28:02;1.80;;;1.67;;
12059;SDS011;6091;51.432;6.880;2022-11-15T01:30:29;1.30;;;1.20;;
12059;SDS011;6091;51.432;6.880;2022-11-15T01:32:56;1.85;;;1.70;;
12059;SDS011;6091;51.432;6.880;2022-11-15T01:35:23;1.30;;;1.20;;
12059;SDS011;6091;51.432;6.880;2022-11-15T01:37:50;1.58;;;1.48;;
12059;SDS011;6091;51.432;6.880;2022-11-15T01:40:17;1.45;;;1.35;;
12059;SDS011;6091;51.432;6.880;2022-11-15T01:42:44;1.20;;;1.20;;
12059;SDS011;6091;51.432;6.880;2022-11-15T01:45:12;1.40;;;1.30;;
12059;SDS011;6091;51.432;6.880;2022-11-15T01:47:51;1.60;;;1.50;;
12059;SDS011;6091;51.432;6.880;2022-11-15T01:50:22;1.38;;;1.27;;
12059;SDS011;6091;51.432;6.880;2022-11-15T01:52:55;1.40;;;1.30;;
12059;SDS011;6091;51.432;6.880;2022-11-15T01:55:23;1.42;;;1.33;;
12059;SDS011;6091;51.432;6.880;2022-11-15T01:57:54;1.63;;;1.52;;
12059;SDS011;6091;51.432;6.880;2022-11-15T02:00:25;1.35;;;1.25;;
12059;SDS011;6091;51.432;6.880;2022-11-15T02:02:53;1.08;;;1.08;;
12059;SDS011;6091;51.432;6.880;2022-11-15T02:05:19;1.63;;;1.40;;
12059;SDS011;6091;51.432;6.880;2022-11-15T02:07:46;1.52;;;1.42;;
12059;SDS011;6091;51.432;6.880;2022-11-15T02:10:19;1.50;;;1.40;;
12059;SDS011;6091;51.432;6.880;2022-11-15T02:12:49;1.17;;;1.10;;
12059;SDS011;6091;51.432;6.880;2022-11-15T02:15:18;1.40;;;1.30;;
12059;SDS011;6091;51.432;6.880;2022-11-15T02:40:58;1.38;;;1.27;;
12059;SDS011;6091;51.432;6.880;2022-11-15T02:43:45;1.30;;;1.20;;
12059;SDS011;6091;51.432;6.880;2022-11-15T02:49:33;1.23;;;1.13;;
12059;SDS011;6091;51.432;6.880;2022-11-15T02:52:02;1.40;;;1.30;;
12059;SDS011;6091;51.432;6.880;2022-11-15T02:54:30;1.30;;;1.20;;
12059;SDS011;6091;51.432;6.880;2022-11-15T02:57:07;1.20;;;1.10;;
12059;SDS011;6091;51.432;6.880;2022-11-15T03:13:40;1.42;;;1.33;;
12059;SDS011;6091;51.432;6.880;2022-11-15T03:19:22;2.00;;;1.20;;
12059;SDS011;6091;51.432;6.880;2022-11-15T03:22:03;1.13;;;1.10;;
12059;SDS011;6091;51.432;6.880;2022-11-15T03:24:36;1.20;;;1.10;;
12059;SDS011;6091;51.432;6.880;2022-11-15T03:27:08;1.20;;;1.10;;
12059;SDS011;6091;51.432;6.880;2022-11-15T03:29:43;1.20;;;1.10;;
12059;SDS011;6091;51.432;6.880;2022-11-15T03:32:18;1.38;;;1.27;;
12059;SDS011;6091;51.432;6.880;2022-11-15T03:37:37;1.10;;;1.10;;
12059;SDS011;6091;51.432;6.880;2022-11-15T03:40:53;1.15;;;1.10;;
12059;SDS011;6091;51.432;6.880;2022-11-15T03:43:52;1.20;;;1.10;;
12059;SDS011;6091;51.432;6.880;2022-11-15T03:46:30;1.83;;;1.35;;
12059;SDS011;6091;51.432;6.880;2022-11-15T03:49:05;1.05;;;1.05;;
12059;SDS011;6091;51.432;6.880;2022-11-15T03:51:40;1.30;;;1.20;;
12059;SDS011;6091;51.432;6.880;2022-11-15T03:54:07;1.17;;;1.08;;
12059;SDS011;6091;51.432;6.880;2022-11-15T03:56:34;1.08;;;1.08;;
12059;SDS011;6091;51.432;6.880;2022-11-15T03:59:01;1.17;;;1.08;;
12059;SDS011;6091;51.432;6.880;2022-11-15T04:01:28;1.20;;;1.15;;
12059;SDS011;6091;51.432;6.880;2022-11-15T04:03:55;1.35;;;1.25;;
12059;SDS011;6091;51.432;6.880;2022-11-15T04:06:22;1.10;;;1.10;;
12059;SDS011;6091;51.432;6.880;2022-11-15T04:08:49;1.40;;;1.30;;
12059;SDS011;6091;51.432;6.880;2022-11-15T04:11:16;1.20;;;1.20;;
12059;SDS011;6091;51.432;6.880;2022-11-15T04:13:43;1.35;;;1.25;;
12059;SDS011;6091;51.432;6.880;2022-11-15T04:16:10;1.35;;;1.25;;
12059;SDS011;6091;51.432;6.880;2022-11-15T04:18:37;1.00;;;1.00;;
12059;SDS011;6091;51.432;6.880;2022-11-15T04:21:03;1.20;;;1.10;;
12059;SDS011;6091;51.432;6.880;2022-11-15T04:23:49;1.30;;;1.20;;
12059;SDS011;6091;51.432;6.880;2022-11-15T04:26:31;1.40;;;1.30;;
12059;SDS011;6091;51.432;6.880;2022-11-15T04:28:58;1.20;;;1.10;;
12059;SDS011;6091;51.432;6.880;2022-11-15T04:31:44;1.00;;;1.00;;
12059;SDS011;6091;51.432;6.880;2022-11-15T04:34:11;1.10;;;1.00;;
12059;SDS011;6091;51.432;6.880;2022-11-15T04:36:38;1.35;;;1.25;;
12059;SDS011;6091;51.432;6.880;2022-11-15T04:39:23;1.00;;;1.00;;
12059;SDS011;6091;51.432;6.880;2022-11-15T04:41:50;1.30;;;1.20;;
12059;SDS011;6091;51.432;6.880;2022-11-15T04:44:17;1.30;;;1.10;;
12059;SDS011;6091;51.432;6.880;2022-11-15T04:46:43;1.30;;;1.20;;
12059;SDS011;6091;51.432;6.880;2022-11-15T04:49:11;1.17;;;1.08;;
12059;SDS011;6091;51.432;6.880;2022-11-15T04:51:37;1.45;;;1.35;;
12059;SDS011;6091;51.432;6.880;2022-11-15T04:54:04;1.20;;;1.10;;
12059;SDS011;6091;51.432;6.880;2022-11-15T04:56:31;1.00;;;1.00;;
12059;SDS011;6091;51.432;6.880;2022-11-15T04:58:58;1.08;;;0.98;;
12059;SDS011;6091;51.432;6.880;2022-11-15T05:01:25;1.30;;;1.20;;
12059;SDS011;6091;51.432;6.880;2022-11-15T05:03:52;1.30;;;1.20;;
12059;SDS011;6091;51.432;6.880;2022-11-15T05:06:37;1.20;;;1.15;;
12059;SDS011;6091;51.432;6.880;2022-11-15T05:09:04;1.02;;;1.02;;
12059;SDS011;6091;51.432;6.880;2022-11-15T05:11:34;1.30;;;1.20;;
12059;SDS011;6091;51.432;6.880;2022-11-15T05:14:01;1.25;;;1.13;;
12059;SDS011;6091;51.432;6.880;2022-11-15T05:16:28;1.10;;;1.10;;
12059;SDS011;6091;51.432;6.880;2022-11-15T05:18:55;1.10;;;1.00;;
12059;SDS011;6091;51.432;6.880;2022-11-15T05:21:22;1.05;;;1.00;;
12059;SDS011;6091;51.432;6.880;2022-11-15T05:23:49;1.08;;;1.00;;
12059;SDS011;6091;51.432;6.880;2022-11-15T05:26:16;1.00;;;1.00;;
12059;SDS011;6091;51.432;6.880;2022-11-15T05:28:44;1.10;;;1.05;;
12059;SDS011;6091;51.432;6.880;2022-11-15T05:31:15;1.40;;;1.30;;
12059;SDS011;6091;51.432;6.880;2022-11-15T05:33:42;1.00;;;1.00;;
12059;SDS011;6091;51.432;6.880;2022-11-15T05:38:51;1.08;;;1.08;;
12059;SDS011;6091;51.432;6.880;2022-11-15T05:41:20;1.02;;;1.02;;
12059;SDS011;6091;51.432;6.880;2022-11-15T05:43:55;1.05;;;1.05;;
12059;SDS011;6091;51.432;6.880;2022-11-15T05:46:24;1.17;;;1.10;;
12059;SDS011;6091;51.432;6.880;2022-11-15T05:48:51;1.20;;;1.10;;
12059;SDS011;6091;51.432;6.880;2022-11-15T05:51:20;1.08;;;1.08;;
12059;SDS011;6091;51.432;6.880;2022-11-15T05:53:49;1.33;;;1.23;;
12059;SDS011;6091;51.432;6.880;2022-11-15T05:56:19;0.90;;;0.90;;
12059;SDS011;6091;51.432;6.880;2022-11-15T05:58:46;1.25;;;1.15;;
12059;SDS011;6091;51.432;6.880;2022-11-15T06:01:13;1.30;;;1.20;;
12059;SDS011;6091;51.432;6.880;2022-11-15T06:03:40;1.13;;;1.13;;
12059;SDS011;6091;51.432;6.880;2022-11-15T06:06:07;1.48;;;1.17;;
12059;SDS011;6091;51.432;6.880;2022-11-15T06:08:41;1.25;;;1.15;;
12059;SDS011;6091;51.432;6.880;2022-11-15T06:11:08;0.95;;;0.95;;
12059;SDS011;6091;51.432;6.880;2022-11-15T06:13:35;1.00;;;1.00;;
12059;SDS011;6091;51.432;6.880;2022-11-15T06:16:02;1.20;;;1.10;;
12059;SDS011;6091;51.432;6.880;2022-11-15T06:18:31;1.10;;;1.10;;
12059;SDS011;6091;51.432;6.880;2022-11-15T06:21:00;1.00;;;1.00;;
12059;SDS011;6091;51.432;6.880;2022-11-15T06:23:28;1.08;;;1.08;;
12059;SDS011;6091;51.432;6.880;2022-11-15T06:25:59;1.20;;;1.10;;
12059;SDS011;6091;51.432;6.880;2022-11-15T06:28:31;0.80;;;0.80;;
12059;SDS011;6091;51.432;6.880;2022-11-15T06:31:06;1.30;;;1.20;;
12059;SDS011;6091;51.432;6.880;2022-11-15T06:33:37;1.10;;;1.00;;
12059;SDS011;6091;51.432;6.880;2022-11-15T06:36:06;0.95;;;0.95;;
12059;SDS011;6091;51.432;6.880;2022-11-15T06:38:43;1.13;;;1.02;;
12059;SDS011;6091;51.432;6.880;2022-11-15T06:41:11;1.10;;;1.10;;
12059;SDS011;6091;51.432;6.880;2022-11-15T06:43:40;0.90;;;0.90;;
12059;SDS011;6091;51.432;6.880;2022-11-15T06:46:07;1.17;;;1.08;;
12059;SDS011;6091;51.432;6.880;2022-11-15T06:48:34;1.17;;;1.08;;
12059;SDS011;6091;51.432;6.880;2022-11-15T06:51:03;1.00;;;1.00;;
12059;SDS011;6091;51.432;6.880;2022-11-15T06:53:31;1.63;;;1.08;;
12059;SDS011;6091;51.432;6.880;2022-11-15T06:56:00;1.30;;;1.20;;
12059;SDS011;6091;51.432;6.880;2022-11-15T06:58:29;1.15;;;1.08;;
12059;SDS011;6091;51.432;6.880;2022-11-15T07:01:04;1.08;;;1.08;;
12059;SDS011;6091;51.432;6.880;2022-11-15T07:03:35;0.82;;;0.82;;
12059;SDS011;6091;51.432;6.880;2022-11-15T07:06:05;1.08;;;1.00;;
12059;SDS011;6091;51.432;6.880;2022-11-15T07:08:34;0.90;;;0.90;;
12059;SDS011;6091;51.432;6.880;2022-11-15T07:11:02;2.80;;;1.17;;
12059;SDS011;6091;51.432;6.880;2022-11-15T07:13:33;1.10;;;1.10;;
12059;SDS011;6091;51.432;6.880;2022-11-15T07:16:05;1.33;;;1.23;;
12059;SDS011;6091;51.432;6.880;2022-11-15T07:18:38;1.25;;;1.15;;
12059;SDS011;6091;51.432;6.880;2022-11-15T07:21:07;1.05;;;1.02;;
12059;SDS011;6091;51.432;6.880;2022-11-15T07:23:37;1.10;;;1.00;;
12059;SDS011;6091;51.432;6.880;2022-11-15T07:26:05;1.40;;;1.20;;
12059;SDS011;6091;51.432;6.880;2022-11-15T07:28:33;0.90;;;0.90;;
12059;SDS011;6091;51.432;6.880;2022-11-15T07:31:02;1.45;;;1.00;;
12059;SDS011;6091;51.432;6.880;2022-11-15T07:33:34;1.35;;;1.25;;
12059;SDS011;6091;51.432;6.880;2022-11-15T07:36:03;1.27;;;1.20;;
12059;SDS011;6091;51.432;6.880;2022-11-15T07:38:33;1.17;;;0.98;;
12059;SDS011;6091;51.432;6.880;2022-11-15T07:41:07;1.13;;;1.10;;
12059;SDS011;6091;51.432;6.880;2022-11-15T07:43:34;1.10;;;1.10;;
12059;SDS011;6091;51.432;6.880;2022-11-15T07:46:05;1.95;;;1.20;;
12059;SDS011;6091;51.432;6.880;2022-11-15T07:48:36;1.10;;;1.00;;
12059;SDS011;6091;51.432;6.880;2022-11-15T07:51:10;2.78;;;1.42;;
12059;SDS011;6091;51.432;6.880;2022-11-15T07:53:42;1.38;;;1.20;;
12059;SDS011;6091;51.432;6.880;2022-11-15T07:56:10;2.22;;;1.10;;
12059;SDS011;6091;51.432;6.880;2022-11-15T07:58:38;1.15;;;1.08;;
12059;SDS011;6091;51.432;6.880;2022-11-15T08:01:08;1.20;;;1.10;;
12059;SDS011;6091;51.432;6.880;2022-11-15T08:03:37;3.45;;;1.33;;
12059;SDS011;6091;51.432;6.880;2022-11-15T08:06:04;3.30;;;1.00;;
12059;SDS011;6091;51.432;6.880;2022-11-15T08:08:31;1.58;;;1.08;;
12059;SDS011;6091;51.432;6.880;2022-11-15T08:10:58;7.53;;;1.23;;
12059;SDS011;6091;51.432;6.880;2022-11-15T08:13:26;2.60;;;1.25;;
12059;SDS011;6091;51.432;6.880;2022-11-15T08:15:59;2.75;;;1.40;;
12059;SDS011;6091;51.432;6.880;2022-11-15T08:18:28;6.03;;;1.23;;
12059;SDS011;6091;51.432;6.880;2022-11-15T08:20:58;4.18;;;1.50;;
12059;SDS011;6091;51.432;6.880;2022-11-15T08:23:26;3.90;;;1.35;;
12059;SDS011;6091;51.432;6.880;2022-11-15T08:26:01;3.67;;;1.40;;
12059;SDS011;6091;51.432;6.880;2022-11-15T08:28:30;6.93;;;1.95;;
12059;SDS011;6091;51.432;6.880;2022-11-15T08:30:58;3.88;;;1.60;;
12059;SDS011;6091;51.432;6.880;2022-11-15T08:33:25;1.90;;;1.40;;
12059;SDS011;6091;51.432;6.880;2022-11-15T08:35:55;1.95;;;1.10;;
12059;SDS011;6091;51.432;6.880;2022-11-15T08:38:23;3.45;;;1.23;;
12059;SDS011;6091;51.432;6.880;2022-11-15T08:41:00;1.65;;;1.08;;
12059;SDS011;6091;51.432;6.880;2022-11-15T08:43:30;5.22;;;1.42;;
12059;SDS011;6091;51.432;6.880;2022-11-15T08:45:57;6.63;;;1.50;;
12059;SDS011;6091;51.432;6.880;2022-11-15T08:48:25;6.15;;;1.20;;
12059;SDS011;6091;51.432;6.880;2022-11-15T08:50:55;2.70;;;1.17;;
12059;SDS011;6091;51.432;6.880;2022-11-15T08:53:23;3.97;;;1.15;;
12059;SDS011;6091;51.432;6.880;2022-11-15T08:55:50;3.80;;;1.23;;
12059;SDS011;6091;51.432;6.880;2022-11-15T08:58:17;3.38;;;1.05;;
12059;SDS011;6091;51.432;6.880;2022-11-15T09:00:44;7.22;;;1.48;;
12059;SDS011;6091;51.432;6.880;2022-11-15T09:03:10;2.22;;;1.30;;
12059;SDS011;6091;51.432;6.880;2022-11-15T09:05:37;4.00;;;1.42;;
12059;SDS011;6091;51.432;6.880;2022-11-15T09:08:05;4.20;;;1.20;;
12059;SDS011;6091;51.432;6.880;2022-11-15T09:10:52;5.07;;;1.50;;
12059;SDS011;6091;51.432;6.880;2022-11-15T09:13:21;2.63;;;1.10;;
12059;SDS011;6091;51.432;6.880;2022-11-15T09:15:48;5.45;;;1.23;;
12059;SDS011;6091;51.432;6.880;2022-11-15T09:18:15;5.75;;;1.40;;
12059;SDS011;6091;51.432;6.880;2022-11-15T09:20:48;3.72;;;1.20;;
12059;SDS011;6091;51.432;6.880;2022-11-15T09:23:15;3.28;;;1.25;;
12059;SDS011;6091;51.432;6.880;2022-11-15T09:25:43;2.83;;;1.20;;
12059;SDS011;6091;51.432;6.880;2022-11-15T09:28:10;2.50;;;1.23;;
12059;SDS011;6091;51.432;6.880;2022-11-15T09:30:37;4.53;;;1.30;;
12059;SDS011;6091;51.432;6.880;2022-11-15T09:33:10;2.78;;;1.20;;
12059;SDS011;6091;51.432;6.880;2022-11-15T09:35:38;3.15;;;1.30;;
12059;SDS011;6091;51.432;6.880;2022-11-15T09:38:07;4.82;;;1.50;;
12059;SDS011;6091;51.432;6.880;2022-11-15T09:40:35;1.83;;;1.10;;
12059;SDS011;6091;51.432;6.880;2022-11-15T09:49:15;2.92;;;1.20;;
12059;SDS011;6091;51.432;6.880;2022-11-15T09:51:47;2.30;;;1.20;;
12059;SDS011;6091;51.432;6.880;2022-11-15T09:54:29;3.40;;;1.20;;
12059;SDS011;6091;51.432;6.880;2022-11-15T10:00:20;5.68;;;1.60;;
12059;SDS011;6091;51.432;6.880;2022-11-15T10:03:18;3.45;;;1.17;;
12059;SDS011;6091;51.432;6.880;2022-11-15T10:05:55;4.57;;;1.60;;
12059;SDS011;6091;51.432;6.880;2022-11-15T10:11:15;6.88;;;1.65;;
12059;SDS011;6091;51.432;6.880;2022-11-15T10:19:50;4.18;;;1.15;;
12059;SDS011;6091;51.432;6.880;2022-11-15T10:22:30;3.92;;;1.40;;
12059;SDS011;6091;51.432;6.880;2022-11-15T10:30:30;3.58;;;1.20;;
12059;SDS011;6091;51.432;6.880;2022-11-15T10:36:14;6.10;;;1.50;;
12059;SDS011;6091;51.432;6.880;2022-11-15T10:41:22;3.10;;;1.48;;
12059;SDS011;6091;51.432;6.880;2022-11-15T10:44:12;7.95;;;1.75;;
12059;SDS011;6091;51.432;6.880;2022-11-15T10:46:48;2.45;;;1.00;;
12059;SDS011;6091;51.432;6.880;2022-11-15T10:49:24;3.22;;;1.67;;
12059;SDS011;6091;51.432;6.880;2022-11-15T10:51:56;3.95;;;1.27;;
12059;SDS011;6091;51.432;6.880;2022-11-15T10:54:42;4.72;;;1.25;;
12059;SDS011;6091;51.432;6.880;2022-11-15T10:57:54;4.25;;;1.20;;
12059;SDS011;6091;51.432;6.880;2022-11-15T11:00:46;3.17;;;1.27;;
12059;SDS011;6091;51.432;6.880;2022-11-15T11:03:58;7.57;;;1.40;;
12059;SDS011;6091;51.432;6.880;2022-11-15T11:06:10;4.38;;;1.30;;
12059;SDS011;6091;51.432;6.880;2022-11-15T11:09:00;7.65;;;1.73;;
12059;SDS011;6091;51.432;6.880;2022-11-15T11:14:23;3.83;;;1.00;;
12059;SDS011;6091;51.432;6.880;2022-11-15T11:17:02;2.40;;;1.30;;
12059;SDS011;6091;51.432;6.880;2022-11-15T11:23:00;5.00;;;1.13;;
12059;SDS011;6091;51.432;6.880;2022-11-15T11:28:26;2.47;;;1.00;;
12059;SDS011;6091;51.432;6.880;2022-11-15T11:34:34;3.00;;;1.05;;
12059;SDS011;6091;51.432;6.880;2022-11-15T11:41:07;3.35;;;0.82;;
12059;SDS011;6091;51.432;6.880;2022-11-15T11:44:18;2.95;;;1.00;;
12059;SDS011;6091;51.432;6.880;2022-11-15T11:47:15;3.00;;;1.20;;
12059;SDS011;6091;51.432;6.880;2022-11-15T11:50:20;2.67;;;1.23;;
12059;SDS011;6091;51.432;6.880;2022-11-15T11:52:57;3.28;;;1.08;;
12059;SDS011;6091;51.432;6.880;2022-11-15T11:55:42;4.75;;;1.10;;
12059;SDS011;6091;51.432;6.880;2022-11-15T11:58:21;3.33;;;1.35;;
12059;SDS011;6091;51.432;6.880;2022-11-15T12:01:20;5.20;;;1.42;;
12059;SDS011;6091;51.432;6.880;2022-11-15T12:04:13;12.02;;;1.60;;
12059;SDS011;6091;51.432;6.880;2022-11-15T12:09:52;11.27;;;1.92;;
12059;SDS011;6091;51.432;6.880;2022-11-15T12:12:58;9.40;;;1.70;;
12059;SDS011;6091;51.432;6.880;2022-11-15T12:18:38;9.48;;;2.05;;
12059;SDS011;6091;51.432;6.880;2022-11-15T12:21:21;6.07;;;1.70;;
12059;SDS011;6091;51.432;6.880;2022-11-15T12:24:08;8.98;;;1.60;;
12059;SDS011;6091;51.432;6.880;2022-11-15T12:27:11;8.00;;;1.60;;
12059;SDS011;6091;51.432;6.880;2022-11-15T12:30:14;7.45;;;1.60;;
12059;SDS011;6091;51.432;6.880;2022-11-15T12:32:53;8.48;;;2.22;;
12059;SDS011;6091;51.432;6.880;2022-11-15T12:35:26;9.48;;;2.60;;
12059;SDS011;6091;51.432;6.880;2022-11-15T12:38:10;11.07;;;3.95;;
12059;SDS011;6091;51.432;6.880;2022-11-15T12:43:44;4.28;;;2.20;;
12059;SDS011;6091;51.432;6.880;2022-11-15T12:49:07;3.40;;;1.45;;
12059;SDS011;6091;51.432;6.880;2022-11-15T13:02:37;2.90;;;1.58;;
12059;SDS011;6091;51.432;6.880;2022-11-15T13:12:54;2.25;;;1.40;;
12059;SDS011;6091;51.432;6.880;2022-11-15T13:21:03;2.30;;;1.70;;
12059;SDS011;6091;51.432;6.880;2022-11-15T13:24:14;2.72;;;1.20;;
12059;SDS011;6091;51.432;6.880;2022-11-15T13:26:46;1.65;;;1.27;;
12059;SDS011;6091;51.432;6.880;2022-11-15T13:29:17;3.55;;;1.30;;
12059;SDS011;6091;51.432;6.880;2022-11-15T13:31:46;3.85;;;1.15;;
12059;SDS011;6091;51.432;6.880;2022-11-15T13:39:48;2.33;;;1.23;;
12059;SDS011;6091;51.432;6.880;2022-11-15T13:42:18;1.80;;;1.15;;
12059;SDS011;6091;51.432;6.880;2022-11-15T13:45:01;3.28;;;1.13;;
12059;SDS011;6091;51.432;6.880;2022-11-15T13:47:31;3.90;;;1.00;;
12059;SDS011;6091;51.432;6.880;2022-11-15T13:49:58;1.55;;;1.00;;
12059;SDS011;6091;51.432;6.880;2022-11-15T13:52:28;1.75;;;1.30;;
12059;SDS011;6091;51.432;6.880;2022-11-15T13:57:47;1.58;;;1.15;;
12059;SDS011;6091;51.432;6.880;2022-11-15T14:00:41;1.15;;;0.80;;
12059;SDS011;6091;51.432;6.880;2022-11-15T14:06:13;1.67;;;1.17;;
12059;SDS011;6091;51.432;6.880;2022-11-15T14:11:52;2.15;;;1.02;;
12059;SDS011;6091;51.432;6.880;2022-11-15T14:14:21;1.52;;;1.20;;
12059;SDS011;6091;51.432;6.880;2022-11-15T14:16:52;2.85;;;1.27;;
12059;SDS011;6091;51.432;6.880;2022-11-15T14:22:11;1.30;;;1.00;;
12059;SDS011;6091;51.432;6.880;2022-11-15T14:24:44;1.25;;;1.08;;
12059;SDS011;6091;51.432;6.880;2022-11-15T14:27:30;1.45;;;1.00;;
12059;SDS011;6091;51.432;6.880;2022-11-15T14:29:57;1.80;;;1.20;;
12059;SDS011;6091;51.432;6.880;2022-11-15T14:32:26;1.10;;;0.80;;
12059;SDS011;6091;51.432;6.880;2022-11-15T14:34:57;2.03;;;0.90;;
12059;SDS011;6091;51.432;6.880;2022-11-15T14:37:28;1.65;;;0.88;;
12059;SDS011;6091;51.432;6.880;2022-11-15T14:40:02;1.83;;;1.10;;
12059;SDS011;6091;51.432;6.880;2022-11-15T14:42:35;1.27;;;1.00;;
12059;SDS011;6091;51.432;6.880;2022-11-15T14:45:02;1.98;;;1.02;;
12059;SDS011;6091;51.432;6.880;2022-11-15T14:47:38;1.98;;;1.15;;
12059;SDS011;6091;51.432;6.880;2022-11-15T14:50:05;1.17;;;0.70;;
12059;SDS011;6091;51.432;6.880;2022-11-15T14:52:33;1.60;;;0.88;;
12059;SDS011;6091;51.432;6.880;2022-11-15T14:55:10;0.90;;;0.75;;
12059;SDS011;6091;51.432;6.880;2022-11-15T14:58:05;1.63;;;1.00;;
12059;SDS011;6091;51.432;6.880;2022-11-15T15:00:37;0.95;;;0.80;;
12059;SDS011;6091;51.432;6.880;2022-11-15T15:03:06;2.17;;;1.10;;
12059;SDS011;6091;51.432;6.880;2022-11-15T15:05:37;0.82;;;0.80;;
12059;SDS011;6091;51.432;6.880;2022-11-15T15:08:09;1.00;;;0.90;;
12059;SDS011;6091;51.432;6.880;2022-11-15T15:10:42;2.47;;;1.25;;
12059;SDS011;6091;51.432;6.880;2022-11-15T15:15:48;1.30;;;0.90;;
12059;SDS011;6091;51.432;6.880;2022-11-15T15:18:17;1.33;;;0.88;;
12059;SDS011;6091;51.432;6.880;2022-11-15T15:20:47;2.13;;;0.80;;
12059;SDS011;6091;51.432;6.880;2022-11-15T15:23:22;1.05;;;0.90;;
12059;SDS011;6091;51.432;6.880;2022-11-15T15:25:51;1.50;;;0.95;;
12059;SDS011;6091;51.432;6.880;2022-11-15T15:28:19;0.93;;;0.80;;
12059;SDS011;6091;51.432;6.880;2022-11-15T15:30:46;0.75;;;0.75;;
12059;SDS011;6091;51.432;6.880;2022-11-15T15:33:13;1.00;;;0.80;;
12059;SDS011;6091;51.432;6.880;2022-11-15T15:35:40;1.60;;;0.90;;
12059;SDS011;6091;51.432;6.880;2022-11-15T15:38:11;1.10;;;1.00;;
12059;SDS011;6091;51.432;6.880;2022-11-15T15:40:40;1.38;;;0.70;;
12059;SDS011;6091;51.432;6.880;2022-11-15T15:43:07;1.27;;;0.85;;
12059;SDS011;6091;51.432;6.880;2022-11-15T15:45:38;0.93;;;0.85;;
12059;SDS011;6091;51.432;6.880;2022-11-15T15:48:10;0.80;;;0.80;;
12059;SDS011;6091;51.432;6.880;2022-11-15T15:50:40;0.60;;;0.60;;
12059;SDS011;6091;51.432;6.880;2022-11-15T15:53:12;0.90;;;0.90;;
12059;SDS011;6091;51.432;6.880;2022-11-15T15:55:39;0.80;;;0.80;;
12059;SDS011;6091;51.432;6.880;2022-11-15T15:58:07;0.80;;;0.80;;
12059;SDS011;6091;51.432;6.880;2022-11-15T16:00:34;1.58;;;0.85;;
12059;SDS011;6091;51.432;6.880;2022-11-15T16:03:03;0.88;;;0.80;;
12059;SDS011;6091;51.432;6.880;2022-11-15T16:05:30;0.77;;;0.75;;
12059;SDS011;6091;51.432;6.880;2022-11-15T16:07:57;1.23;;;0.98;;
12059;SDS011;6091;51.432;6.880;2022-11-15T16:10:26;5.07;;;1.17;;
12059;SDS011;6091;51.432;6.880;2022-11-15T16:12:59;2.28;;;1.00;;
12059;SDS011;6091;51.432;6.880;2022-11-15T16:15:28;3.22;;;1.10;;
12059;SDS011;6091;51.432;6.880;2022-11-15T16:17:58;4.72;;;1.00;;
12059;SDS011;6091;51.432;6.880;2022-11-15T16:20:31;1.35;;;0.90;;
12059;SDS011;6091;51.432;6.880;2022-11-15T16:23:09;2.10;;;0.90;;
12059;SDS011;6091;51.432;6.880;2022-11-15T16:25:41;5.35;;;1.02;;
12059;SDS011;6091;51.432;6.880;2022-11-15T16:28:22;1.48;;;0.93;;
12059;SDS011;6091;51.432;6.880;2022-11-15T16:30:58;4.03;;;0.93;;
12059;SDS011;6091;51.432;6.880;2022-11-15T16:33:28;3.20;;;1.20;;
12059;SDS011;6091;51.432;6.880;2022-11-15T16:35:56;2.05;;;1.52;;
12059;SDS011;6091;51.432;6.880;2022-11-15T16:38:23;2.70;;;1.17;;
12059;SDS011;6091;51.432;6.880;2022-11-15T16:40:50;2.08;;;1.25;;
12059;SDS011;6091;51.432;6.880;2022-11-15T16:43:17;1.83;;;0.88;;
12059;SDS011;6091;51.432;6.880;2022-11-15T16:45:45;1.73;;;1.00;;
12059;SDS011;6091;51.432;6.880;2022-11-15T16:48:33;3.58;;;1.20;;
12059;SDS011;6091;51.432;6.880;2022-11-15T16:51:00;6.15;;;0.98;;
12059;SDS011;6091;51.432;6.880;2022-11-15T16:53:29;3.30;;;1.30;;
12059;SDS011;6091;51.432;6.880;2022-11-15T16:55:56;1.65;;;1.00;;
12059;SDS011;6091;51.432;6.880;2022-11-15T16:58:24;2.38;;;1.25;;
12059;SDS011;6091;51.432;6.880;2022-11-15T17:00:51;2.45;;;0.90;;
12059;SDS011;6091;51.432;6.880;2022-11-15T17:03:20;1.20;;;0.80;;
12059;SDS011;6091;51.432;6.880;2022-11-15T17:05:51;0.70;;;0.70;;
12059;SDS011;6091;51.432;6.880;2022-11-15T17:08:18;1.73;;;0.88;;
12059;SDS011;6091;51.432;6.880;2022-11-15T17:10:47;1.83;;;0.68;;
12059;SDS011;6091;51.432;6.880;2022-11-15T17:13:14;0.80;;;0.75;;
12059;SDS011;6091;51.432;6.880;2022-11-15T17:15:41;2.00;;;0.93;;
12059;SDS011;6091;51.432;6.880;2022-11-15T17:18:09;1.10;;;0.88;;
12059;SDS011;6091;51.432;6.880;2022-11-15T17:20:39;1.13;;;0.98;;
12059;SDS011;6091;51.432;6.880;2022-11-15T17:23:14;2.53;;;0.75;;
12059;SDS011;6091;51.432;6.880;2022-11-15T17:25:42;2.20;;;0.95;;
12059;SDS011;6091;51.432;6.880;2022-11-15T17:28:09;1.30;;;0.70;;
12059;SDS011;6091;51.432;6.880;2022-11-15T17:30:39;1.63;;;0.70;;
12059;SDS011;6091;51.432;6.880;2022-11-15T17:33:08;1.02;;;0.90;;
12059;SDS011;6091;51.432;6.880;2022-11-15T17:35:35;0.82;;;0.60;;
12059;SDS011;6091;51.432;6.880;2022-11-15T17:38:02;2.80;;;0.80;;
12059;SDS011;6091;51.432;6.880;2022-11-15T17:40:29;1.30;;;0.80;;
12059;SDS011;6091;51.432;6.880;2022-11-15T17:42:56;1.70;;;0.85;;
12059;SDS011;6091;51.432;6.880;2022-11-15T17:45:23;1.38;;;1.00;;
12059;SDS011;6091;51.432;6.880;2022-11-15T17:47:50;1.10;;;0.90;;
12059;SDS011;6091;51.432;6.880;2022-11-15T17:50:18;1.40;;;0.80;;
12059;SDS011;6091;51.432;6.880;2022-11-15T17:52:46;1.50;;;0.70;;
12059;SDS011;6091;51.432;6.880;2022-11-15T17:55:12;1.10;;;1.00;;
12059;SDS011;6091;51.432;6.880;2022-11-15T17:57:40;0.80;;;0.77;;
12059;SDS011;6091;51.432;6.880;2022-11-15T18:00:09;1.10;;;0.60;;